sensor_id;sensor_type;location;lat;lon;timestamp;P1;durP1;ratioP1;P2;durP2;ratioP2
65691;SDS011;52411;52.716;6.696;2023-03-01T00:01:12;31.95;;;15.30;;
65691;SDS011;52411;52.716;6.696;2023-03-01T00:03:43;32.17;;;15.25;;
65691;SDS011;52411;52.716;6.696;2023-03-01T00:06:09;31.80;;;14.75;;
65691;SDS011;52411;52.716;6.696;2023-03-01T00:08:35;32.85;;;17.02;;
65691;SDS011;52411;52.716;6.696;2023-03-01T00:11:02;30.77;;;15.73;;
65691;SDS011;52411;52.716;6.696;2023-03-01T00:13:43;36.38;;;16.88;;
65691;SDS011;52411;52.716;6.696;2023-03-01T00:16:11;32.83;;;16.80;;
65691;SDS011;52411;52.716;6.696;2023-03-01T00:18:39;28.15;;;14.35;;
65691;SDS011;52411;52.716;6.696;2023-03-01T00:21:05;31.85;;;16.70;;
65691;SDS011;52411;52.716;6.696;2023-03-01T00:23:31;33.28;;;16.40;;
65691;SDS011;52411;52.716;6.696;2023-03-01T00:25:59;32.05;;;16.67;;
65691;SDS011;52411;52.716;6.696;2023-03-01T00:28:25;34.47;;;17.35;;
65691;SDS011;52411;52.716;6.696;2023-03-01T00:30:51;38.20;;;17.48;;
65691;SDS011;52411;52.716;6.696;2023-03-01T00:33:17;34.75;;;17.77;;
65691;SDS011;52411;52.716;6.696;2023-03-01T00:35:43;37.03;;;17.98;;
65691;SDS011;52411;52.716;6.696;2023-03-01T00:38:09;35.15;;;16.85;;
65691;SDS011;52411;52.716;6.696;2023-03-01T00:40:35;33.00;;;17.08;;
65691;SDS011;52411;52.716;6.696;2023-03-01T00:43:01;33.80;;;16.90;;
65691;SDS011;52411;52.716;6.696;2023-03-01T00:45:28;35.83;;;17.70;;
65691;SDS011;52411;52.716;6.696;2023-03-01T00:47:55;37.05;;;18.88;;
65691;SDS011;52411;52.716;6.696;2023-03-01T00:50:21;37.50;;;17.90;;
65691;SDS011;52411;52.716;6.696;2023-03-01T00:52:47;40.65;;;18.83;;
65691;SDS011;52411;52.716;6.696;2023-03-01T00:55:16;37.83;;;18.17;;
65691;SDS011;52411;52.716;6.696;2023-03-01T00:57:42;33.83;;;15.98;;
65691;SDS011;52411;52.716;6.696;2023-03-01T01:00:08;36.03;;;18.42;;
65691;SDS011;52411;52.716;6.696;2023-03-01T01:02:34;37.08;;;17.67;;
65691;SDS011;52411;52.716;6.696;2023-03-01T01:05:00;40.38;;;18.75;;
65691;SDS011;52411;52.716;6.696;2023-03-01T01:07:26;40.35;;;19.63;;
65691;SDS011;52411;52.716;6.696;2023-03-01T01:09:51;36.63;;;17.33;;
65691;SDS011;52411;52.716;6.696;2023-03-01T01:12:17;38.42;;;18.88;;
65691;SDS011;52411;52.716;6.696;2023-03-01T01:14:42;34.83;;;18.10;;
65691;SDS011;52411;52.716;6.696;2023-03-01T01:17:09;37.42;;;17.90;;
65691;SDS011;52411;52.716;6.696;2023-03-01T01:19:34;42.10;;;19.45;;
65691;SDS011;52411;52.716;6.696;2023-03-01T01:22:00;39.10;;;20.00;;
65691;SDS011;52411;52.716;6.696;2023-03-01T01:24:25;46.85;;;20.92;;
65691;SDS011;52411;52.716;6.696;2023-03-01T01:26:51;40.80;;;20.20;;
65691;SDS011;52411;52.716;6.696;2023-03-01T01:29:17;38.13;;;19.10;;
65691;SDS011;52411;52.716;6.696;2023-03-01T01:31:43;41.80;;;18.95;;
65691;SDS011;52411;52.716;6.696;2023-03-01T01:34:12;39.70;;;19.23;;
65691;SDS011;52411;52.716;6.696;2023-03-01T01:36:40;39.60;;;19.98;;
65691;SDS011;52411;52.716;6.696;2023-03-01T01:39:06;42.58;;;20.05;;
65691;SDS011;52411;52.716;6.696;2023-03-01T01:41:32;40.78;;;18.95;;
65691;SDS011;52411;52.716;6.696;2023-03-01T01:46:55;38.20;;;17.55;;
65691;SDS011;52411;52.716;6.696;2023-03-01T01:49:55;42.15;;;19.35;;
65691;SDS011;52411;52.716;6.696;2023-03-01T01:52:23;37.35;;;17.95;;
65691;SDS011;52411;52.716;6.696;2023-03-01T01:57:56;45.15;;;20.25;;
65691;SDS011;52411;52.716;6.696;2023-03-01T02:00:28;38.13;;;18.25;;
65691;SDS011;52411;52.716;6.696;2023-03-01T02:02:55;40.40;;;19.17;;
65691;SDS011;52411;52.716;6.696;2023-03-01T02:05:26;38.92;;;18.52;;
65691;SDS011;52411;52.716;6.696;2023-03-01T02:08:18;34.58;;;16.50;;
65691;SDS011;52411;52.716;6.696;2023-03-01T02:10:45;37.40;;;18.20;;
65691;SDS011;52411;52.716;6.696;2023-03-01T02:13:12;35.30;;;18.35;;
65691;SDS011;52411;52.716;6.696;2023-03-01T02:15:39;39.72;;;17.30;;
65691;SDS011;52411;52.716;6.696;2023-03-01T02:18:06;98.60;;;21.90;;
65691;SDS011;52411;52.716;6.696;2023-03-01T02:20:56;170.30;;;25.05;;
65691;SDS011;52411;52.716;6.696;2023-03-01T02:23:29;218.95;;;22.15;;
65691;SDS011;52411;52.716;6.696;2023-03-01T02:26:01;173.25;;;18.80;;
65691;SDS011;52411;52.716;6.696;2023-03-01T02:28:57;120.32;;;17.40;;
65691;SDS011;52411;52.716;6.696;2023-03-01T02:31:22;381.05;;;26.42;;
65691;SDS011;52411;52.716;6.696;2023-03-01T02:34:07;196.13;;;19.05;;
65691;SDS011;52411;52.716;6.696;2023-03-01T02:36:48;27.83;;;14.55;;
65691;SDS011;52411;52.716;6.696;2023-03-01T02:39:20;253.00;;;19.92;;
65691;SDS011;52411;52.716;6.696;2023-03-01T02:41:51;237.18;;;22.67;;
65691;SDS011;52411;52.716;6.696;2023-03-01T02:44:19;414.65;;;27.40;;
65691;SDS011;52411;52.716;6.696;2023-03-01T02:46:47;466.08;;;28.77;;
65691;SDS011;52411;52.716;6.696;2023-03-01T02:57:13;209.18;;;18.20;;
65691;SDS011;52411;52.716;6.696;2023-03-01T02:59:39;280.98;;;19.83;;
65691;SDS011;52411;52.716;6.696;2023-03-01T03:02:07;162.25;;;15.50;;
65691;SDS011;52411;52.716;6.696;2023-03-01T03:05:00;178.20;;;17.27;;
65691;SDS011;52411;52.716;6.696;2023-03-01T03:07:27;319.83;;;27.50;;
65691;SDS011;52411;52.716;6.696;2023-03-01T03:09:53;256.98;;;23.60;;
65691;SDS011;52411;52.716;6.696;2023-03-01T03:12:18;245.60;;;22.00;;
65691;SDS011;52411;52.716;6.696;2023-03-01T03:14:44;133.50;;;18.00;;
65691;SDS011;52411;52.716;6.696;2023-03-01T03:17:09;286.40;;;25.00;;
65691;SDS011;52411;52.716;6.696;2023-03-01T03:19:35;403.77;;;31.05;;
65691;SDS011;52411;52.716;6.696;2023-03-01T03:22:00;238.38;;;25.05;;
65691;SDS011;52411;52.716;6.696;2023-03-01T03:24:26;93.35;;;19.73;;
65691;SDS011;52411;52.716;6.696;2023-03-01T03:27:02;80.78;;;20.08;;
65691;SDS011;52411;52.716;6.696;2023-03-01T03:29:31;145.80;;;22.88;;
65691;SDS011;52411;52.716;6.696;2023-03-01T03:31:57;39.78;;;18.65;;
65691;SDS011;52411;52.716;6.696;2023-03-01T03:34:23;213.95;;;26.48;;
65691;SDS011;52411;52.716;6.696;2023-03-01T03:36:52;400.63;;;34.72;;
65691;SDS011;52411;52.716;6.696;2023-03-01T03:39:21;462.98;;;34.92;;
65691;SDS011;52411;52.716;6.696;2023-03-01T03:41:48;380.50;;;33.20;;
65691;SDS011;52411;52.716;6.696;2023-03-01T03:44:13;250.63;;;31.70;;
65691;SDS011;52411;52.716;6.696;2023-03-01T03:46:39;53.45;;;21.92;;
65691;SDS011;52411;52.716;6.696;2023-03-01T03:49:05;65.50;;;27.13;;
65691;SDS011;52411;52.716;6.696;2023-03-01T03:51:30;42.72;;;19.67;;
65691;SDS011;52411;52.716;6.696;2023-03-01T03:53:56;48.80;;;22.95;;
65691;SDS011;52411;52.716;6.696;2023-03-01T03:56:21;47.08;;;22.05;;
65691;SDS011;52411;52.716;6.696;2023-03-01T03:58:50;34.42;;;16.98;;
65691;SDS011;52411;52.716;6.696;2023-03-01T04:01:16;55.55;;;23.50;;
65691;SDS011;52411;52.716;6.696;2023-03-01T04:03:42;46.83;;;23.38;;
65691;SDS011;52411;52.716;6.696;2023-03-01T04:06:11;30.77;;;16.20;;
65691;SDS011;52411;52.716;6.696;2023-03-01T04:08:38;29.92;;;15.20;;
65691;SDS011;52411;52.716;6.696;2023-03-01T04:11:04;36.38;;;18.17;;
65691;SDS011;52411;52.716;6.696;2023-03-01T04:13:49;41.00;;;18.90;;
65691;SDS011;52411;52.716;6.696;2023-03-01T04:16:15;43.83;;;20.38;;
65691;SDS011;52411;52.716;6.696;2023-03-01T04:18:42;44.38;;;22.23;;
65691;SDS011;52411;52.716;6.696;2023-03-01T04:21:08;39.78;;;19.23;;
65691;SDS011;52411;52.716;6.696;2023-03-01T04:23:35;41.10;;;20.60;;
65691;SDS011;52411;52.716;6.696;2023-03-01T04:26:01;43.47;;;19.50;;
65691;SDS011;52411;52.716;6.696;2023-03-01T04:30:54;36.40;;;18.45;;
65691;SDS011;52411;52.716;6.696;2023-03-01T04:33:21;37.80;;;17.92;;
65691;SDS011;52411;52.716;6.696;2023-03-01T04:35:47;41.40;;;17.83;;
65691;SDS011;52411;52.716;6.696;2023-03-01T04:38:14;35.17;;;17.42;;
65691;SDS011;52411;52.716;6.696;2023-03-01T04:40:40;38.75;;;18.05;;
65691;SDS011;52411;52.716;6.696;2023-03-01T04:43:08;40.40;;;19.10;;
65691;SDS011;52411;52.716;6.696;2023-03-01T04:45:35;38.47;;;18.10;;
65691;SDS011;52411;52.716;6.696;2023-03-01T04:48:01;37.67;;;18.50;;
65691;SDS011;52411;52.716;6.696;2023-03-01T04:50:27;38.17;;;19.00;;
65691;SDS011;52411;52.716;6.696;2023-03-01T04:52:52;36.88;;;18.20;;
65691;SDS011;52411;52.716;6.696;2023-03-01T04:55:18;36.67;;;17.67;;
65691;SDS011;52411;52.716;6.696;2023-03-01T04:57:45;39.00;;;18.58;;
65691;SDS011;52411;52.716;6.696;2023-03-01T05:00:11;36.88;;;17.33;;
65691;SDS011;52411;52.716;6.696;2023-03-01T05:05:14;37.72;;;18.65;;
65691;SDS011;52411;52.716;6.696;2023-03-01T05:07:40;39.03;;;19.02;;
65691;SDS011;52411;52.716;6.696;2023-03-01T05:10:06;37.15;;;19.35;;
65691;SDS011;52411;52.716;6.696;2023-03-01T05:12:32;38.15;;;19.02;;
65691;SDS011;52411;52.716;6.696;2023-03-01T05:14:57;42.08;;;19.50;;
65691;SDS011;52411;52.716;6.696;2023-03-01T05:17:23;36.50;;;18.10;;
65691;SDS011;52411;52.716;6.696;2023-03-01T05:19:49;35.80;;;18.52;;
65691;SDS011;52411;52.716;6.696;2023-03-01T05:22:15;36.60;;;17.80;;
65691;SDS011;52411;52.716;6.696;2023-03-01T05:24:41;36.05;;;15.25;;
65691;SDS011;52411;52.716;6.696;2023-03-01T05:27:07;34.92;;;17.00;;
65691;SDS011;52411;52.716;6.696;2023-03-01T05:29:32;32.33;;;15.13;;
65691;SDS011;52411;52.716;6.696;2023-03-01T05:32:00;37.35;;;17.85;;
65691;SDS011;52411;52.716;6.696;2023-03-01T05:34:29;30.63;;;15.23;;
65691;SDS011;52411;52.716;6.696;2023-03-01T05:36:55;34.30;;;17.35;;
65691;SDS011;52411;52.716;6.696;2023-03-01T05:39:22;38.80;;;18.17;;
65691;SDS011;52411;52.716;6.696;2023-03-01T05:41:55;39.97;;;19.35;;
65691;SDS011;52411;52.716;6.696;2023-03-01T05:44:23;43.30;;;19.48;;
65691;SDS011;52411;52.716;6.696;2023-03-01T05:46:49;45.38;;;20.23;;
65691;SDS011;52411;52.716;6.696;2023-03-01T05:49:15;36.45;;;17.92;;
65691;SDS011;52411;52.716;6.696;2023-03-01T05:51:43;39.92;;;18.85;;
65691;SDS011;52411;52.716;6.696;2023-03-01T05:54:12;43.75;;;18.45;;
65691;SDS011;52411;52.716;6.696;2023-03-01T05:56:38;39.05;;;19.50;;
65691;SDS011;52411;52.716;6.696;2023-03-01T05:59:03;40.63;;;19.50;;
65691;SDS011;52411;52.716;6.696;2023-03-01T06:01:33;37.97;;;18.90;;
65691;SDS011;52411;52.716;6.696;2023-03-01T06:03:59;41.97;;;19.67;;
65691;SDS011;52411;52.716;6.696;2023-03-01T06:06:26;38.08;;;18.75;;
65691;SDS011;52411;52.716;6.696;2023-03-01T06:08:52;42.05;;;19.60;;
65691;SDS011;52411;52.716;6.696;2023-03-01T06:11:18;41.35;;;19.65;;
65691;SDS011;52411;52.716;6.696;2023-03-01T06:13:45;40.10;;;19.85;;
65691;SDS011;52411;52.716;6.696;2023-03-01T06:16:11;38.30;;;18.83;;
65691;SDS011;52411;52.716;6.696;2023-03-01T06:18:38;39.55;;;18.40;;
65691;SDS011;52411;52.716;6.696;2023-03-01T06:21:04;44.85;;;19.02;;
65691;SDS011;52411;52.716;6.696;2023-03-01T06:23:31;38.00;;;17.77;;
65691;SDS011;52411;52.716;6.696;2023-03-01T06:25:57;47.05;;;21.40;;
65691;SDS011;52411;52.716;6.696;2023-03-01T06:28:23;33.30;;;16.48;;
65691;SDS011;52411;52.716;6.696;2023-03-01T06:30:49;40.17;;;18.63;;
65691;SDS011;52411;52.716;6.696;2023-03-01T06:33:16;39.30;;;20.55;;
65691;SDS011;52411;52.716;6.696;2023-03-01T06:35:45;38.15;;;19.02;;
65691;SDS011;52411;52.716;6.696;2023-03-01T06:38:11;35.70;;;16.92;;
65691;SDS011;52411;52.716;6.696;2023-03-01T06:40:39;37.88;;;17.50;;
65691;SDS011;52411;52.716;6.696;2023-03-01T06:43:05;39.13;;;18.08;;
65691;SDS011;52411;52.716;6.696;2023-03-01T06:45:32;35.72;;;17.17;;
65691;SDS011;52411;52.716;6.696;2023-03-01T06:48:02;31.42;;;15.70;;
65691;SDS011;52411;52.716;6.696;2023-03-01T06:50:29;35.50;;;18.02;;
65691;SDS011;52411;52.716;6.696;2023-03-01T06:52:56;35.58;;;17.67;;
65691;SDS011;52411;52.716;6.696;2023-03-01T06:55:22;37.88;;;18.38;;
65691;SDS011;52411;52.716;6.696;2023-03-01T06:57:47;36.55;;;17.80;;
65691;SDS011;52411;52.716;6.696;2023-03-01T07:00:13;35.42;;;17.58;;
65691;SDS011;52411;52.716;6.696;2023-03-01T07:02:39;39.00;;;18.25;;
65691;SDS011;52411;52.716;6.696;2023-03-01T07:05:05;38.47;;;18.58;;
65691;SDS011;52411;52.716;6.696;2023-03-01T07:07:31;33.80;;;17.40;;
65691;SDS011;52411;52.716;6.696;2023-03-01T07:09:56;38.35;;;17.45;;
65691;SDS011;52411;52.716;6.696;2023-03-01T07:12:22;44.05;;;19.88;;
65691;SDS011;52411;52.716;6.696;2023-03-01T07:14:47;40.28;;;18.88;;
65691;SDS011;52411;52.716;6.696;2023-03-01T07:17:13;44.97;;;20.02;;
65691;SDS011;52411;52.716;6.696;2023-03-01T07:19:39;45.58;;;20.00;;
65691;SDS011;52411;52.716;6.696;2023-03-01T07:22:04;44.08;;;19.65;;
65691;SDS011;52411;52.716;6.696;2023-03-01T07:24:32;45.67;;;21.02;;
65691;SDS011;52411;52.716;6.696;2023-03-01T07:26:58;44.67;;;20.10;;
65691;SDS011;52411;52.716;6.696;2023-03-01T07:29:24;44.05;;;19.50;;
65691;SDS011;52411;52.716;6.696;2023-03-01T07:31:49;36.25;;;17.83;;
65691;SDS011;52411;52.716;6.696;2023-03-01T07:34:15;42.65;;;20.08;;
65691;SDS011;52411;52.716;6.696;2023-03-01T07:36:41;39.53;;;19.05;;
65691;SDS011;52411;52.716;6.696;2023-03-01T07:39:08;39.38;;;19.67;;
65691;SDS011;52411;52.716;6.696;2023-03-01T07:41:35;43.08;;;20.75;;
65691;SDS011;52411;52.716;6.696;2023-03-01T07:44:00;51.17;;;21.42;;
65691;SDS011;52411;52.716;6.696;2023-03-01T07:46:26;44.50;;;21.83;;
65691;SDS011;52411;52.716;6.696;2023-03-01T07:48:52;42.33;;;20.70;;
65691;SDS011;52411;52.716;6.696;2023-03-01T07:51:17;42.97;;;20.77;;
65691;SDS011;52411;52.716;6.696;2023-03-01T07:53:45;46.40;;;21.60;;
65691;SDS011;52411;52.716;6.696;2023-03-01T07:56:13;45.83;;;22.38;;
65691;SDS011;52411;52.716;6.696;2023-03-01T07:58:42;48.85;;;21.63;;
65691;SDS011;52411;52.716;6.696;2023-03-01T08:01:11;47.95;;;23.10;;
65691;SDS011;52411;52.716;6.696;2023-03-01T08:03:38;56.53;;;25.67;;
65691;SDS011;52411;52.716;6.696;2023-03-01T08:06:05;56.35;;;25.83;;
65691;SDS011;52411;52.716;6.696;2023-03-01T08:08:32;55.92;;;29.02;;
65691;SDS011;52411;52.716;6.696;2023-03-01T08:10:59;56.75;;;29.25;;
65691;SDS011;52411;52.716;6.696;2023-03-01T08:13:27;61.78;;;29.65;;
65691;SDS011;52411;52.716;6.696;2023-03-01T08:15:53;56.55;;;27.90;;
65691;SDS011;52411;52.716;6.696;2023-03-01T08:18:19;57.45;;;28.83;;
65691;SDS011;52411;52.716;6.696;2023-03-01T08:20:45;61.53;;;29.58;;
65691;SDS011;52411;52.716;6.696;2023-03-01T08:23:11;59.33;;;30.45;;
65691;SDS011;52411;52.716;6.696;2023-03-01T08:25:37;58.40;;;30.13;;
65691;SDS011;52411;52.716;6.696;2023-03-01T08:28:03;61.20;;;30.70;;
65691;SDS011;52411;52.716;6.696;2023-03-01T08:30:29;65.75;;;30.17;;
65691;SDS011;52411;52.716;6.696;2023-03-01T08:32:55;51.15;;;25.52;;
65691;SDS011;52411;52.716;6.696;2023-03-01T08:35:20;51.25;;;25.88;;
65691;SDS011;52411;52.716;6.696;2023-03-01T08:37:46;56.60;;;27.30;;
65691;SDS011;52411;52.716;6.696;2023-03-01T08:40:12;57.47;;;28.90;;
65691;SDS011;52411;52.716;6.696;2023-03-01T08:42:39;58.10;;;28.83;;
65691;SDS011;52411;52.716;6.696;2023-03-01T08:45:06;55.85;;;28.58;;
65691;SDS011;52411;52.716;6.696;2023-03-01T08:47:32;55.45;;;27.08;;
65691;SDS011;52411;52.716;6.696;2023-03-01T08:49:58;59.95;;;26.80;;
65691;SDS011;52411;52.716;6.696;2023-03-01T08:52:25;56.20;;;27.08;;
65691;SDS011;52411;52.716;6.696;2023-03-01T08:54:51;47.13;;;25.27;;
65691;SDS011;52411;52.716;6.696;2023-03-01T08:57:17;58.95;;;28.70;;
65691;SDS011;52411;52.716;6.696;2023-03-01T08:59:43;59.45;;;28.45;;
65691;SDS011;52411;52.716;6.696;2023-03-01T09:02:13;61.00;;;28.30;;
65691;SDS011;52411;52.716;6.696;2023-03-01T09:04:42;50.75;;;25.15;;
65691;SDS011;52411;52.716;6.696;2023-03-01T09:07:07;52.00;;;25.15;;
65691;SDS011;52411;52.716;6.696;2023-03-01T09:09:33;61.95;;;27.42;;
65691;SDS011;52411;52.716;6.696;2023-03-01T09:11:59;54.58;;;27.08;;
65691;SDS011;52411;52.716;6.696;2023-03-01T09:14:25;57.10;;;26.67;;
65691;SDS011;52411;52.716;6.696;2023-03-01T09:16:51;58.22;;;25.20;;
65691;SDS011;52411;52.716;6.696;2023-03-01T09:19:16;49.30;;;23.67;;
65691;SDS011;52411;52.716;6.696;2023-03-01T09:21:42;48.20;;;23.02;;
65691;SDS011;52411;52.716;6.696;2023-03-01T09:24:17;45.55;;;21.17;;
65691;SDS011;52411;52.716;6.696;2023-03-01T09:26:47;36.55;;;19.45;;
65691;SDS011;52411;52.716;6.696;2023-03-01T09:29:13;34.90;;;18.23;;
65691;SDS011;52411;52.716;6.696;2023-03-01T09:31:40;32.13;;;18.08;;
65691;SDS011;52411;52.716;6.696;2023-03-01T09:34:06;30.88;;;16.65;;
65691;SDS011;52411;52.716;6.696;2023-03-01T09:36:32;34.33;;;17.10;;
65691;SDS011;52411;52.716;6.696;2023-03-01T09:38:58;27.48;;;15.10;;
65691;SDS011;52411;52.716;6.696;2023-03-01T09:46:51;26.33;;;14.95;;
65691;SDS011;52411;52.716;6.696;2023-03-01T09:49:18;23.25;;;12.48;;
65691;SDS011;52411;52.716;6.696;2023-03-01T09:54:25;21.23;;;12.02;;
65691;SDS011;52411;52.716;6.696;2023-03-01T09:57:11;22.40;;;11.50;;
65691;SDS011;52411;52.716;6.696;2023-03-01T10:11:13;20.05;;;9.32;;
65691;SDS011;52411;52.716;6.696;2023-03-01T10:13:47;18.80;;;9.27;;
65691;SDS011;52411;52.716;6.696;2023-03-01T10:19:03;15.35;;;6.45;;
65691;SDS011;52411;52.716;6.696;2023-03-01T10:21:31;13.40;;;6.32;;
65691;SDS011;52411;52.716;6.696;2023-03-01T10:24:13;11.27;;;6.60;;
65691;SDS011;52411;52.716;6.696;2023-03-01T10:26:47;10.60;;;6.25;;
65691;SDS011;52411;52.716;6.696;2023-03-01T10:29:16;13.05;;;6.68;;
65691;SDS011;52411;52.716;6.696;2023-03-01T10:31:48;15.73;;;7.72;;
65691;SDS011;52411;52.716;6.696;2023-03-01T10:34:21;14.05;;;7.80;;
65691;SDS011;52411;52.716;6.696;2023-03-01T10:36:52;12.30;;;7.63;;
65691;SDS011;52411;52.716;6.696;2023-03-01T10:39:23;13.02;;;6.50;;
65691;SDS011;52411;52.716;6.696;2023-03-01T10:44:45;9.98;;;5.43;;
65691;SDS011;52411;52.716;6.696;2023-03-01T10:47:14;14.35;;;5.80;;
65691;SDS011;52411;52.716;6.696;2023-03-01T10:49:51;11.75;;;6.45;;
65691;SDS011;52411;52.716;6.696;2023-03-01T10:52:21;11.60;;;6.65;;
65691;SDS011;52411;52.716;6.696;2023-03-01T10:54:56;9.98;;;5.95;;
65691;SDS011;52411;52.716;6.696;2023-03-01T10:57:27;11.68;;;6.00;;
65691;SDS011;52411;52.716;6.696;2023-03-01T11:00:13;9.80;;;6.15;;
65691;SDS011;52411;52.716;6.696;2023-03-01T11:02:48;13.43;;;6.35;;
65691;SDS011;52411;52.716;6.696;2023-03-01T11:05:28;9.50;;;5.93;;
65691;SDS011;52411;52.716;6.696;2023-03-01T11:07:58;11.77;;;6.10;;
65691;SDS011;52411;52.716;6.696;2023-03-01T11:10:33;9.70;;;5.90;;
65691;SDS011;52411;52.716;6.696;2023-03-01T11:13:17;11.00;;;5.90;;
65691;SDS011;52411;52.716;6.696;2023-03-01T11:16:00;9.52;;;5.88;;
65691;SDS011;52411;52.716;6.696;2023-03-01T11:18:29;10.05;;;5.68;;
65691;SDS011;52411;52.716;6.696;2023-03-01T11:20:55;11.65;;;5.97;;
65691;SDS011;52411;52.716;6.696;2023-03-01T11:23:23;11.32;;;5.78;;
65691;SDS011;52411;52.716;6.696;2023-03-01T11:25:58;8.77;;;6.00;;
65691;SDS011;52411;52.716;6.696;2023-03-01T11:28:29;9.70;;;6.00;;
65691;SDS011;52411;52.716;6.696;2023-03-01T11:33:35;13.43;;;6.88;;
65691;SDS011;52411;52.716;6.696;2023-03-01T11:36:06;13.15;;;7.03;;
65691;SDS011;52411;52.716;6.696;2023-03-01T11:38:34;12.35;;;7.03;;
65691;SDS011;52411;52.716;6.696;2023-03-01T11:41:04;15.55;;;7.47;;
65691;SDS011;52411;52.716;6.696;2023-03-01T11:43:49;11.90;;;6.90;;
65691;SDS011;52411;52.716;6.696;2023-03-01T11:51:42;14.70;;;7.80;;
65691;SDS011;52411;52.716;6.696;2023-03-01T12:08:14;14.23;;;7.75;;
65691;SDS011;52411;52.716;6.696;2023-03-01T12:10:48;13.20;;;7.75;;
65691;SDS011;52411;52.716;6.696;2023-03-01T12:13:42;14.75;;;7.60;;
65691;SDS011;52411;52.716;6.696;2023-03-01T12:22:04;12.73;;;7.32;;
65691;SDS011;52411;52.716;6.696;2023-03-01T12:27:57;12.60;;;7.53;;
65691;SDS011;52411;52.716;6.696;2023-03-01T12:36:55;11.60;;;7.20;;
65691;SDS011;52411;52.716;6.696;2023-03-01T12:50:18;12.77;;;6.75;;
65691;SDS011;52411;52.716;6.696;2023-03-01T12:52:51;12.48;;;8.00;;
65691;SDS011;52411;52.716;6.696;2023-03-01T13:01:00;12.77;;;7.40;;
65691;SDS011;52411;52.716;6.696;2023-03-01T13:03:36;12.38;;;7.43;;
65691;SDS011;52411;52.716;6.696;2023-03-01T13:08:58;13.07;;;7.90;;
65691;SDS011;52411;52.716;6.696;2023-03-01T13:11:40;16.05;;;7.80;;
65691;SDS011;52411;52.716;6.696;2023-03-01T13:16:46;14.35;;;7.10;;
65691;SDS011;52411;52.716;6.696;2023-03-01T13:19:20;13.27;;;7.07;;
65691;SDS011;52411;52.716;6.696;2023-03-01T13:21:48;13.65;;;7.32;;
65691;SDS011;52411;52.716;6.696;2023-03-01T13:24:36;14.00;;;8.60;;
65691;SDS011;52411;52.716;6.696;2023-03-01T13:34:57;16.30;;;8.25;;
65691;SDS011;52411;52.716;6.696;2023-03-01T13:37:29;18.67;;;9.13;;
65691;SDS011;52411;52.716;6.696;2023-03-01T13:39:58;12.95;;;8.55;;
65691;SDS011;52411;52.716;6.696;2023-03-01T13:42:37;12.75;;;7.00;;
65691;SDS011;52411;52.716;6.696;2023-03-01T13:45:13;13.90;;;8.02;;
65691;SDS011;52411;52.716;6.696;2023-03-01T13:47:46;12.38;;;8.38;;
65691;SDS011;52411;52.716;6.696;2023-03-01T13:50:22;14.30;;;8.25;;
65691;SDS011;52411;52.716;6.696;2023-03-01T13:52:53;13.45;;;8.23;;
65691;SDS011;52411;52.716;6.696;2023-03-01T13:58:16;17.15;;;8.90;;
65691;SDS011;52411;52.716;6.696;2023-03-01T14:00:55;14.43;;;8.57;;
65691;SDS011;52411;52.716;6.696;2023-03-01T14:03:32;15.90;;;8.43;;
65691;SDS011;52411;52.716;6.696;2023-03-01T14:06:12;13.85;;;8.05;;
65691;SDS011;52411;52.716;6.696;2023-03-01T14:08:41;13.82;;;8.88;;
65691;SDS011;52411;52.716;6.696;2023-03-01T14:14:07;14.43;;;8.88;;
65691;SDS011;52411;52.716;6.696;2023-03-01T14:19:28;16.17;;;9.02;;
65691;SDS011;52411;52.716;6.696;2023-03-01T14:22:13;17.55;;;9.20;;
65691;SDS011;52411;52.716;6.696;2023-03-01T14:24:40;18.23;;;9.02;;
65691;SDS011;52411;52.716;6.696;2023-03-01T14:27:12;16.25;;;8.93;;
65691;SDS011;52411;52.716;6.696;2023-03-01T14:29:39;15.90;;;8.93;;
65691;SDS011;52411;52.716;6.696;2023-03-01T14:32:09;19.35;;;9.43;;
65691;SDS011;52411;52.716;6.696;2023-03-01T14:34:44;18.60;;;9.88;;
65691;SDS011;52411;52.716;6.696;2023-03-01T14:37:18;17.60;;;9.43;;
65691;SDS011;52411;52.716;6.696;2023-03-01T14:39:52;17.83;;;10.65;;
65691;SDS011;52411;52.716;6.696;2023-03-01T14:42:19;21.67;;;10.73;;
65691;SDS011;52411;52.716;6.696;2023-03-01T14:44:47;17.77;;;9.55;;
65691;SDS011;52411;52.716;6.696;2023-03-01T14:47:21;15.98;;;9.02;;
65691;SDS011;52411;52.716;6.696;2023-03-01T14:49:53;18.35;;;9.68;;
65691;SDS011;52411;52.716;6.696;2023-03-01T14:52:39;17.58;;;9.98;;
65691;SDS011;52411;52.716;6.696;2023-03-01T14:55:13;15.15;;;8.65;;
65691;SDS011;52411;52.716;6.696;2023-03-01T14:57:47;23.65;;;9.60;;
65691;SDS011;52411;52.716;6.696;2023-03-01T15:00:16;17.90;;;10.50;;
65691;SDS011;52411;52.716;6.696;2023-03-01T15:02:45;16.73;;;10.18;;
65691;SDS011;52411;52.716;6.696;2023-03-01T15:05:13;17.92;;;9.52;;
65691;SDS011;52411;52.716;6.696;2023-03-01T15:07:41;16.15;;;9.93;;
65691;SDS011;52411;52.716;6.696;2023-03-01T15:10:24;18.10;;;10.85;;
65691;SDS011;52411;52.716;6.696;2023-03-01T15:12:52;19.63;;;10.63;;
65691;SDS011;52411;52.716;6.696;2023-03-01T15:15:19;19.85;;;10.20;;
65691;SDS011;52411;52.716;6.696;2023-03-01T15:17:58;20.65;;;10.60;;
65691;SDS011;52411;52.716;6.696;2023-03-01T15:22:54;19.35;;;9.98;;
65691;SDS011;52411;52.716;6.696;2023-03-01T15:25:22;19.85;;;10.18;;
65691;SDS011;52411;52.716;6.696;2023-03-01T15:27:50;21.50;;;11.18;;
65691;SDS011;52411;52.716;6.696;2023-03-01T15:30:22;17.70;;;10.52;;
65691;SDS011;52411;52.716;6.696;2023-03-01T15:35:44;21.50;;;10.63;;
65691;SDS011;52411;52.716;6.696;2023-03-01T15:38:29;18.40;;;10.25;;
65691;SDS011;52411;52.716;6.696;2023-03-01T15:40:59;22.88;;;10.90;;
65691;SDS011;52411;52.716;6.696;2023-03-01T15:43:36;16.95;;;10.20;;
65691;SDS011;52411;52.716;6.696;2023-03-01T15:46:02;19.65;;;10.68;;
65691;SDS011;52411;52.716;6.696;2023-03-01T15:48:29;19.02;;;10.07;;
65691;SDS011;52411;52.716;6.696;2023-03-01T15:50:56;16.20;;;10.20;;
65691;SDS011;52411;52.716;6.696;2023-03-01T15:53:23;18.38;;;10.35;;
65691;SDS011;52411;52.716;6.696;2023-03-01T15:55:49;18.90;;;10.60;;
65691;SDS011;52411;52.716;6.696;2023-03-01T16:00:43;16.15;;;9.63;;
65691;SDS011;52411;52.716;6.696;2023-03-01T16:03:10;17.42;;;10.32;;
65691;SDS011;52411;52.716;6.696;2023-03-01T16:05:36;16.63;;;9.65;;
65691;SDS011;52411;52.716;6.696;2023-03-01T16:08:03;16.33;;;9.50;;
65691;SDS011;52411;52.716;6.696;2023-03-01T16:10:33;17.42;;;10.15;;
65691;SDS011;52411;52.716;6.696;2023-03-01T16:13:00;17.80;;;9.27;;
65691;SDS011;52411;52.716;6.696;2023-03-01T16:15:27;17.52;;;10.02;;
65691;SDS011;52411;52.716;6.696;2023-03-01T16:17:57;16.75;;;9.82;;
65691;SDS011;52411;52.716;6.696;2023-03-01T16:20:25;17.75;;;10.15;;
65691;SDS011;52411;52.716;6.696;2023-03-01T16:22:52;19.60;;;9.80;;
65691;SDS011;52411;52.716;6.696;2023-03-01T16:25:19;17.27;;;9.95;;
65691;SDS011;52411;52.716;6.696;2023-03-01T16:27:46;15.93;;;10.13;;
65691;SDS011;52411;52.716;6.696;2023-03-01T16:30:14;14.80;;;9.93;;
65691;SDS011;52411;52.716;6.696;2023-03-01T16:32:42;16.80;;;10.05;;
65691;SDS011;52411;52.716;6.696;2023-03-01T16:35:09;18.20;;;10.02;;
65691;SDS011;52411;52.716;6.696;2023-03-01T16:37:36;18.08;;;10.70;;
65691;SDS011;52411;52.716;6.696;2023-03-01T16:40:03;15.75;;;10.13;;
65691;SDS011;52411;52.716;6.696;2023-03-01T16:42:33;16.58;;;10.38;;